KLWB/LWB METAR and TAF weather

Enter ICAO airport designator
Station Type Date Time Source
KLWB METAR 2021/07/24 20:51 UTC NOAA

KLWB 242051Z 01004KT 10SM SCT055 29/16 A3010


Station Type Date Time Source
KLWB Decoded METAR 2021/07/24 20:51 UTC NOAA

Lewisburg / Greenbrier, WV, United States (KLWB) 37-52N 080-24W
Jul 24, 2021 - 04:51 PM EDT / 2021.07.24 2051 UTC
Wind: from the N (010 degrees) at 5 MPH (4 KT):0
Visibility: 10 mile(s):0
Sky conditions: partly cloudy
Temperature: 84 F (29 C)
Dew Point: 60 F (16 C)
Relative Humidity: 45%
Pressure (altimeter): 30.1 in. Hg (1019 hPa)
ob: KLWB 242051Z 01004KT 10SM SCT055 29/16 A3010
cycle: 21

Station Type Date Time Source
KLWB TAF 2021/07/24 18:24 UTC NOAA

TAF KLWB 241721Z 2418/2518 24005KT P6SM SCT045
FM250000 00000KT P6SM SCT040
FM250800 00000KT 1SM BR BKN001
FM251200 26004KT P6SM SCT035

Example: see airport list